Time;durP1;ratioP1;P1;durP2;ratioP2;P2;SDS_P1;SDS_P2;PMS_P1;PMS_P2;Temp;Humidity;BMP_temperature;BMP_pressure;BME280_temperature;BME280_humidity;BME280_pressure;Samples;Min_cycle;Max_cycle;Signal;HPM_P1;HPM_P2
2021/08/01 00:01:48;;;;;;;12.25;3.63;;;21.30;76.60;;;;;;4248248;27;20051;-75
2021/08/01 00:03:52;;;;;;;9.80;2.65;;;21.30;76.70;;;;;;4248385;27;20055;-75
2021/08/01 00:06:00;;;;;;;8.35;2.92;;;21.10;78.10;;;;;;4248265;27;20065;-76
2021/08/01 00:08:05;;;;;;;11.48;3.30;;;21.10;78.60;;;;;;4248076;27;20616;-74
2021/08/01 00:10:09;;;;;;;10.55;2.95;;;21.10;77.70;;;;;;4247999;27;20061;-74
2021/08/01 00:12:13;;;;;;;11.25;2.92;;;21.20;77.10;;;;;;4229738;28;20055;-74
2021/08/01 00:14:16;;;;;;;17.15;3.65;;;21.20;77.00;;;;;;4247513;27;20055;-75
2021/08/01 00:16:21;;;;;;;9.27;2.92;;;21.20;77.50;;;;;;4247691;27;20553;-74
2021/08/01 00:18:24;;;;;;;;;;;21.30;77.10;;;;;;4248529;27;20047;-74
2021/08/01 00:20:27;;;;;;;14.15;3.17;;;21.20;77.00;;;;;;4247751;27;19926;-77
2021/08/01 00:22:30;;;;;;;9.18;2.83;;;21.20;77.60;;;;;;4247690;27;20509;-74
2021/08/01 00:24:35;;;;;;;10.25;3.03;;;21.20;77.00;;;;;;4247506;27;20063;-75
2021/08/01 00:26:38;;;;;;;11.68;3.10;;;21.10;78.10;;;;;;4247531;27;20380;-75
2021/08/01 00:28:41;;;;;;;11.93;3.22;;;21.10;77.60;;;;;;4247332;27;20062;-77
2021/08/01 00:30:44;;;;;;;9.48;3.28;;;21.10;77.90;;;;;;4247389;27;20051;-77
2021/08/01 00:32:47;;;;;;;13.93;3.38;;;21.10;78.20;;;;;;4247337;27;20051;-77
2021/08/01 00:34:50;;;;;;;10.18;3.25;;;21.10;77.10;;;;;;4229361;28;20136;-77
2021/08/01 00:36:53;;;;;;;11.95;3.42;;;21.10;77.00;;;;;;4247546;27;20056;-77
2021/08/01 00:38:56;;;;;;;12.55;3.42;;;21.10;77.70;;;;;;4247560;27;20059;-74
2021/08/01 00:41:01;;;;;;;12.57;3.25;;;21.10;78.10;;;;;;4247203;27;20062;-74
2021/08/01 00:43:04;;;;;;;10.98;3.03;;;21.00;79.10;;;;;;4247301;27;20051;-74
2021/08/01 00:45:08;;;;;;;9.50;3.17;;;20.80;79.00;;;;;;4247624;27;20053;-76
2021/08/01 00:47:12;;;;;;;9.40;3.08;;;20.90;78.60;;;;;;4247186;27;20059;-75
2021/08/01 00:49:15;;;;;;;10.23;3.55;;;20.90;78.60;;;;;;4247191;27;20486;-76
2021/08/01 00:51:18;;;;;;;8.73;3.17;;;20.90;78.40;;;;;;4247164;27;20388;-76
2021/08/01 00:53:21;;;;;;;14.65;3.20;;;20.80;78.40;;;;;;4247067;27;20059;-76
2021/08/01 00:55:24;;;;;;;10.77;3.28;;;20.90;78.20;;;;;;4247249;27;20415;-76
2021/08/01 00:57:29;;;;;;;8.40;2.75;;;20.90;78.20;;;;;;4247004;27;20051;-76
2021/08/01 00:59:33;;;;;;;13.45;3.13;;;20.80;78.40;;;;;;4247119;27;20404;-77
2021/08/01 01:01:40;;;;;;;11.27;3.60;;;20.80;78.40;;;;;;4246983;27;20497;-76
2021/08/01 01:03:54;;;;;;;6.30;2.63;;;20.80;78.80;;;;;;4247009;27;20564;-75
2021/08/01 01:06:00;;;;;;;13.10;3.55;;;20.80;78.60;;;;;;4246859;27;20055;-74
2021/08/01 01:08:08;;;;;;;10.52;3.33;;;20.90;78.10;;;;;;4247077;27;20077;-75
2021/08/01 01:10:16;;;;;;;9.85;2.88;;;20.90;78.60;;;;;;4247269;27;20061;-74
2021/08/01 01:12:21;;;;;;;9.07;3.17;;;20.90;78.30;;;;;;4246991;27;20053;-74
2021/08/01 01:14:30;;;;;;;9.18;3.22;;;20.90;78.40;;;;;;4246781;27;20058;-76
2021/08/01 01:16:40;;;;;;;10.82;3.25;;;20.80;79.40;;;;;;4246916;27;20078;-75
2021/08/01 01:18:47;;;;;;;9.73;3.22;;;20.80;78.70;;;;;;4246564;27;20063;-74
2021/08/01 01:21:28;;;;;;;10.20;3.75;;;20.80;78.80;;;;;;4246672;27;20051;-77
2021/08/01 01:23:41;;;;;;;13.05;3.28;;;20.80;79.50;;;;;;4246766;27;20055;-77
2021/08/01 01:25:58;;;;;;;9.05;3.22;;;20.70;79.40;;;;;;4246799;27;20055;-75
2021/08/01 01:28:07;;;;;;;12.30;3.97;;;20.70;79.30;;;;;;4246704;27;20048;-75
2021/08/01 01:30:13;;;;;;;12.68;3.28;;;20.70;79.80;;;;;;4228622;28;20617;-76
2021/08/01 01:32:23;;;;;;;8.38;3.28;;;20.70;79.20;;;;;;4246814;27;20051;-75
2021/08/01 01:34:44;;;;;;;10.20;3.22;;;20.70;80.30;;;;;;4246488;27;20057;-75
2021/08/01 01:36:51;;;;;;;12.30;3.00;;;20.70;80.00;;;;;;4246518;27;20518;-75
2021/08/01 01:38:55;;;;;;;11.55;3.25;;;20.70;79.80;;;;;;4246302;27;20051;-74
2021/08/01 01:41:00;;;;;;;7.87;2.83;;;20.70;80.20;;;;;;4246606;27;20479;-74
2021/08/01 01:43:06;;;;;;;9.13;3.20;;;20.70;80.10;;;;;;4246679;27;20159;-74
2021/08/01 01:45:10;;;;;;;10.13;3.20;;;20.70;79.60;;;;;;4245976;27;20071;-73
2021/08/01 01:47:15;;;;;;;8.45;3.33;;;20.70;80.20;;;;;;4246454;27;20043;-76
2021/08/01 01:49:18;;;;;;;7.75;2.92;;;20.70;80.30;;;;;;4246177;27;20043;-75
2021/08/01 01:51:21;;;;;;;6.07;2.85;;;20.70;80.10;;;;;;4246161;27;20403;-76
2021/08/01 01:53:26;;;;;;;7.53;3.15;;;20.80;80.00;;;;;;4246053;27;20058;-75
2021/08/01 01:55:29;;;;;;;9.77;3.17;;;20.70;79.90;;;;;;4246508;27;20063;-74
2021/08/01 01:57:33;;;;;;;6.75;2.38;;;20.70;80.10;;;;;;4246272;27;20543;-76
2021/08/01 01:59:37;;;;;;;6.30;2.38;;;20.70;79.80;;;;;;4246448;27;20055;-75
2021/08/01 02:01:40;;;;;;;12.00;2.83;;;20.70;81.00;;;;;;4246099;27;20055;-76
2021/08/01 02:03:43;;;;;;;5.22;2.83;;;20.70;80.80;;;;;;4246056;27;20065;-76
2021/08/01 02:05:46;;;;;;;9.23;3.15;;;20.60;81.20;;;;;;4246578;27;20051;-76
2021/08/01 02:07:49;;;;;;;6.88;2.72;;;20.60;81.30;;;;;;4246100;27;20066;-75
2021/08/01 02:10:01;;;;;;;5.35;2.42;;;20.60;80.50;;;;;;4246034;27;20065;-73
2021/08/01 02:12:10;;;;;;;9.30;2.70;;;20.70;80.80;;;;;;4228003;28;20078;-76
2021/08/01 02:14:16;;;;;;;6.10;2.58;;;20.70;80.80;;;;;;4245852;27;20043;-75
2021/08/01 02:16:22;;;;;;;10.82;2.72;;;20.70;80.80;;;;;;4246244;27;20442;-76
2021/08/01 02:18:31;;;;;;;10.05;2.53;;;20.60;80.70;;;;;;4245603;27;20053;-75
2021/08/01 02:20:39;;;;;;;7.10;2.60;;;20.70;81.30;;;;;;4246211;27;20556;-76
2021/08/01 02:22:44;;;;;;;6.85;2.67;;;20.60;81.00;;;;;;4245933;27;20051;-76
2021/08/01 02:24:49;;;;;;;7.85;2.70;;;20.60;81.30;;;;;;4245844;27;20111;-76
2021/08/01 02:26:54;;;;;;;5.82;2.45;;;20.50;80.60;;;;;;4245676;27;20560;-76
2021/08/01 02:28:57;;;;;;;;;;;20.60;80.40;;;;;;4246328;27;20063;-76
2021/08/01 02:31:01;;;;;;;7.63;2.65;;;20.50;81.80;;;;;;4245712;27;19952;-76
2021/08/01 02:33:06;;;;;;;5.50;2.58;;;20.50;81.40;;;;;;4245772;28;20051;-76
2021/08/01 02:35:10;;;;;;;11.68;2.75;;;20.40;81.50;;;;;;4246151;28;20062;-76
2021/08/01 02:37:14;;;;;;;8.43;3.03;;;20.40;82.00;;;;;;4246051;28;20433;-75
2021/08/01 02:39:19;;;;;;;13.17;3.47;;;20.30;82.40;;;;;;4245845;28;20051;-76
2021/08/01 02:41:28;;;;;;;10.70;3.22;;;20.30;82.80;;;;;;4245864;28;20066;-76
2021/08/01 02:43:34;;;;;;;8.48;2.90;;;20.30;82.70;;;;;;4246056;28;20503;-76
2021/08/01 02:45:38;;;;;;;8.00;2.60;;;20.30;82.40;;;;;;4245789;28;20065;-76
2021/08/01 02:47:43;;;;;;;10.07;2.97;;;20.30;82.60;;;;;;4245601;28;20055;-76
2021/08/01 02:49:46;;;;;;;;;;;20.30;82.00;;;;;;4246419;28;20055;-75
2021/08/01 02:51:52;;;;;;;10.63;3.15;;;20.30;82.20;;;;;;4245966;28;19926;-75
2021/08/01 02:53:57;;;;;;;9.15;3.10;;;20.30;82.40;;;;;;4246165;28;20055;-76
2021/08/01 02:56:03;;;;;;;7.38;2.78;;;20.30;82.70;;;;;;4245695;28;20059;-78
2021/08/01 02:58:07;;;;;;;12.73;3.90;;;20.30;82.00;;;;;;4245799;28;20051;-76
2021/08/01 03:00:13;;;;;;;10.23;3.13;;;20.30;83.80;;;;;;4245724;28;20071;-75
2021/08/01 03:02:18;;;;;;;7.25;2.95;;;20.20;83.40;;;;;;4245643;28;20661;-76
2021/08/01 03:04:23;;;;;;;8.77;3.30;;;20.30;82.80;;;;;;4245552;28;20047;-76
2021/08/01 03:06:32;;;;;;;10.23;3.10;;;20.30;82.80;;;;;;4245765;28;20078;-76
2021/08/01 03:08:35;;;;;;;10.55;3.63;;;20.30;82.40;;;;;;4245441;28;20051;-75
2021/08/01 03:10:41;;;;;;;9.00;3.13;;;20.30;82.40;;;;;;4245600;28;20055;-76
2021/08/01 03:12:45;;;;;;;10.48;3.38;;;20.40;82.20;;;;;;4245596;27;20048;-76
2021/08/01 03:14:48;;;;;;;6.38;2.92;;;20.40;82.20;;;;;;4245474;28;20144;-76
2021/08/01 03:16:57;;;;;;;9.38;3.17;;;20.40;82.00;;;;;;4245547;28;20058;-75
2021/08/01 03:19:00;;;;;;;6.85;3.00;;;20.40;82.60;;;;;;4245593;28;20051;-76
2021/08/01 03:21:03;;;;;;;12.32;3.78;;;20.30;83.00;;;;;;4245661;28;20126;-76
2021/08/01 03:23:06;;;;;;;8.77;3.25;;;20.30;83.70;;;;;;4245921;28;20057;-75
2021/08/01 03:25:10;;;;;;;8.05;2.97;;;20.30;83.80;;;;;;4245822;28;20055;-76
2021/08/01 03:27:13;;;;;;;8.48;2.80;;;20.30;83.20;;;;;;4245686;28;20061;-77
2021/08/01 03:29:16;;;;;;;7.05;2.88;;;20.30;82.80;;;;;;4247329;27;20051;-74
2021/08/01 03:31:19;;;;;;;7.50;2.92;;;20.20;83.60;;;;;;4248649;27;20051;-75
2021/08/01 03:33:23;;;;;;;5.57;2.67;;;20.20;82.80;;;;;;4248952;27;20384;-75
2021/08/01 03:35:26;;;;;;;9.43;3.22;;;20.30;83.00;;;;;;4248566;27;20055;-75
2021/08/01 03:37:29;;;;;;;10.68;3.47;;;20.30;82.70;;;;;;4248532;27;20411;-75
2021/08/01 03:39:34;;;;;;;12.52;3.28;;;20.30;83.10;;;;;;4248503;27;20062;-74
2021/08/01 03:41:38;;;;;;;7.80;2.50;;;20.30;83.50;;;;;;4248626;27;20085;-75
2021/08/01 03:43:41;;;;;;;8.90;2.83;;;20.30;83.50;;;;;;4248512;27;20051;-75
2021/08/01 03:45:44;;;;;;;5.07;2.67;;;20.30;83.50;;;;;;4248256;27;20055;-75
2021/08/01 03:47:47;;;;;;;10.82;2.65;;;20.30;82.90;;;;;;4230195;27;20059;-75
2021/08/01 03:49:52;;;;;;;6.90;2.83;;;20.30;83.60;;;;;;4248549;27;20062;-74
2021/08/01 03:51:55;;;;;;;8.98;2.55;;;20.30;82.70;;;;;;4248426;27;20051;-75
2021/08/01 03:53:58;;;;;;;6.15;3.05;;;20.30;82.40;;;;;;4248187;27;20402;-75
2021/08/01 03:56:02;;;;;;;6.47;2.80;;;20.30;83.70;;;;;;4248281;27;20498;-76
2021/08/01 03:58:05;;;;;;;6.35;2.78;;;20.30;83.10;;;;;;4248226;27;20055;-75
2021/08/01 04:00:09;;;;;;;5.82;2.65;;;20.30;82.90;;;;;;4248138;27;20061;-75
2021/08/01 04:02:15;;;;;;;10.63;2.38;;;20.30;82.50;;;;;;4248100;27;20070;-76
2021/08/01 04:04:18;;;;;;;6.93;2.72;;;20.30;83.60;;;;;;4248007;27;20051;-75
2021/08/01 04:06:23;;;;;;;6.97;3.10;;;20.30;83.00;;;;;;4248106;27;20402;-74
2021/08/01 04:08:26;;;;;;;5.20;2.67;;;20.30;83.00;;;;;;4248056;27;20427;-75
2021/08/01 04:10:29;;;;;;;8.93;2.95;;;20.30;83.20;;;;;;4248195;27;20081;-76
2021/08/01 04:12:32;;;;;;;9.20;2.85;;;20.30;83.30;;;;;;4229664;28;20062;-75
2021/08/01 04:14:36;;;;;;;11.43;3.50;;;20.30;83.70;;;;;;4247924;27;20061;-74
2021/08/01 04:16:39;;;;;;;11.60;2.95;;;20.30;83.20;;;;;;4247878;27;20059;-75
2021/08/01 04:18:42;;;;;;;7.68;2.80;;;20.30;83.30;;;;;;4247905;27;20051;-74
2021/08/01 04:20:45;;;;;;;8.48;2.58;;;20.30;83.40;;;;;;4229725;28;20058;-74
2021/08/01 04:22:53;;;;;;;9.02;2.67;;;20.30;83.90;;;;;;4247852;27;20047;-75
2021/08/01 04:24:56;;;;;;;9.52;3.03;;;20.20;83.40;;;;;;4247727;27;20461;-76
2021/08/01 04:26:59;;;;;;;7.10;2.50;;;20.20;83.80;;;;;;4247668;27;20081;-76
2021/08/01 04:29:02;;;;;;;10.90;2.55;;;20.20;83.50;;;;;;4247324;27;20051;-75
2021/08/01 04:31:05;;;;;;;7.85;2.65;;;20.20;83.30;;;;;;4247968;27;20425;-75
2021/08/01 04:33:08;;;;;;;10.63;2.60;;;20.20;83.20;;;;;;4248241;27;20054;-75
2021/08/01 04:35:11;;;;;;;9.65;3.03;;;20.20;83.50;;;;;;4247786;27;20059;-76
2021/08/01 04:37:15;;;;;;;5.47;2.35;;;20.20;83.50;;;;;;4247402;27;20066;-76
2021/08/01 04:39:19;;;;;;;6.60;3.10;;;20.20;83.10;;;;;;4247603;27;20139;-76
2021/08/01 04:41:22;;;;;;;7.07;2.85;;;20.20;83.30;;;;;;4247230;27;20062;-75
2021/08/01 04:43:25;;;;;;;8.77;3.17;;;20.20;83.50;;;;;;4247820;27;20055;-74
2021/08/01 04:45:28;;;;;;;10.85;3.05;;;20.20;84.70;;;;;;4247340;27;20043;-74
2021/08/01 04:47:31;;;;;;;11.23;3.08;;;20.10;85.00;;;;;;4247342;27;20427;-74
2021/08/01 04:49:34;;;;;;;7.53;3.30;;;19.90;85.70;;;;;;4247502;27;20051;-74
2021/08/01 04:51:37;;;;;;;9.73;3.30;;;20.00;85.30;;;;;;4247565;27;20047;-74
2021/08/01 04:53:40;;;;;;;13.32;3.72;;;19.90;85.60;;;;;;4247240;27;20619;-74
2021/08/01 04:55:44;;;;;;;9.88;3.40;;;19.90;85.80;;;;;;4247467;27;20402;-74
2021/08/01 04:57:47;;;;;;;6.55;3.00;;;19.90;86.10;;;;;;4247432;27;20391;-76
2021/08/01 04:59:50;;;;;;;6.65;3.25;;;19.90;85.60;;;;;;4247303;27;20051;-74
2021/08/01 05:01:53;;;;;;;7.88;2.80;;;19.90;85.60;;;;;;4247388;27;20509;-74
2021/08/01 05:03:57;;;;;;;9.65;2.72;;;19.90;86.00;;;;;;4247281;27;20051;-74
2021/08/01 05:06:00;;;;;;;8.43;2.55;;;19.90;85.80;;;;;;4246814;27;20059;-75
2021/08/01 05:08:03;;;;;;;13.10;2.85;;;19.90;85.60;;;;;;4228959;28;20056;-74
2021/08/01 05:10:07;;;;;;;13.30;2.90;;;19.90;85.70;;;;;;4247023;27;20380;-73
2021/08/01 05:12:11;;;;;;;10.63;2.97;;;19.90;85.60;;;;;;4247237;27;20453;-74
2021/08/01 05:14:14;;;;;;;9.68;3.00;;;19.90;85.80;;;;;;4246791;27;20046;-75
2021/08/01 05:16:18;;;;;;;9.65;3.35;;;19.90;86.20;;;;;;4246878;27;20062;-75
2021/08/01 05:18:21;;;;;;;8.02;2.90;;;19.90;86.50;;;;;;4247150;27;20051;-75
2021/08/01 05:20:24;;;;;;;9.93;2.85;;;19.80;86.10;;;;;;4246839;27;20061;-75
2021/08/01 05:22:27;;;;;;;9.40;2.95;;;19.80;86.10;;;;;;4228651;28;20047;-75
2021/08/01 05:24:30;;;;;;;11.77;2.90;;;19.80;87.00;;;;;;4246652;27;20407;-75
2021/08/01 05:26:33;;;;;;;12.02;2.88;;;19.70;87.70;;;;;;4246517;27;20055;-75
2021/08/01 05:28:38;;;;;;;9.80;2.90;;;19.70;87.40;;;;;;4246477;27;20051;-74
2021/08/01 05:30:41;;;;;;;9.63;3.10;;;19.70;87.20;;;;;;4246871;27;20802;-75
2021/08/01 05:32:44;;;;;;;8.75;2.53;;;19.70;87.90;;;;;;4246691;27;20055;-74
2021/08/01 05:34:47;;;;;;;11.18;3.28;;;19.70;87.70;;;;;;4246806;27;20483;-77
2021/08/01 05:36:50;;;;;;;9.02;3.15;;;19.50;89.00;;;;;;4246371;27;20051;-74
2021/08/01 05:38:53;;;;;;;8.43;3.10;;;19.60;88.50;;;;;;4246605;27;20051;-75
2021/08/01 05:40:56;;;;;;;11.50;3.05;;;19.50;88.70;;;;;;4228477;28;20431;-75
2021/08/01 05:42:59;;;;;;;7.55;3.20;;;19.50;88.60;;;;;;4246722;27;20398;-75
2021/08/01 05:45:05;;;;;;;7.95;3.20;;;19.50;89.60;;;;;;4246686;27;20065;-76
2021/08/01 05:47:08;;;;;;;10.43;2.92;;;19.50;88.90;;;;;;4246406;27;20087;-74
2021/08/01 05:49:11;;;;;;;13.05;2.97;;;19.40;90.00;;;;;;4246723;27;20051;-75
2021/08/01 05:51:14;;;;;;;9.38;3.58;;;19.40;90.00;;;;;;4228565;28;20063;-75
2021/08/01 05:53:20;;;;;;;11.05;3.38;;;19.50;89.30;;;;;;4246052;27;20051;-75
2021/08/01 05:55:23;;;;;;;8.75;3.33;;;19.50;89.60;;;;;;4246451;27;20047;-77
2021/08/01 05:57:26;;;;;;;6.32;3.38;;;19.50;89.00;;;;;;4246600;27;20059;-75
2021/08/01 05:59:31;;;;;;;11.65;3.20;;;19.50;89.80;;;;;;4246415;27;20479;-75
2021/08/01 06:01:36;;;;;;;12.60;3.30;;;19.50;90.10;;;;;;4246522;27;20410;-74
2021/08/01 06:03:40;;;;;;;9.23;3.17;;;19.50;89.90;;;;;;4246688;27;20058;-75
2021/08/01 06:05:43;;;;;;;9.80;3.25;;;19.50;89.70;;;;;;4246158;27;20139;-76
2021/08/01 06:07:46;;;;;;;9.63;3.08;;;19.50;89.20;;;;;;4246278;27;20491;-74
2021/08/01 06:09:49;;;;;;;15.95;3.35;;;19.50;90.30;;;;;;4246106;27;20047;-77
2021/08/01 06:11:52;;;;;;;11.35;3.30;;;19.50;90.00;;;;;;4246205;27;20518;-76
2021/08/01 06:13:55;;;;;;;13.50;3.53;;;19.50;90.00;;;;;;4246050;27;20047;-74
2021/08/01 06:15:59;;;;;;;7.55;3.35;;;19.60;89.90;;;;;;4246040;27;20051;-75
2021/08/01 06:18:03;;;;;;;11.75;3.10;;;19.60;89.90;;;;;;4246019;27;20059;-75
2021/08/01 06:20:07;;;;;;;11.57;2.97;;;19.50;90.70;;;;;;4246062;27;20131;-74
2021/08/01 06:22:10;;;;;;;7.72;2.42;;;19.50;90.20;;;;;;4245843;27;20065;-74
2021/08/01 06:24:13;;;;;;;8.23;2.92;;;19.60;89.90;;;;;;4245866;27;20047;-74
2021/08/01 06:26:18;;;;;;;10.32;2.65;;;19.70;89.80;;;;;;4246288;27;20399;-74
2021/08/01 06:28:21;;;;;;;6.75;2.63;;;19.50;90.10;;;;;;4246169;27;20062;-74
2021/08/01 06:30:24;;;;;;;9.95;2.53;;;19.60;90.00;;;;;;4228025;28;20404;-74
2021/08/01 06:32:27;;;;;;;11.80;2.88;;;19.60;90.10;;;;;;4245820;27;20050;-77
2021/08/01 06:34:32;;;;;;;10.18;3.22;;;19.60;90.40;;;;;;4245745;27;20059;-75
2021/08/01 06:36:35;;;;;;;8.73;3.00;;;19.60;90.50;;;;;;4245642;28;20059;-75
2021/08/01 06:38:39;;;;;;;9.27;2.55;;;19.60;90.30;;;;;;4245952;28;20055;-75
2021/08/01 06:40:42;;;;;;;11.82;2.88;;;19.70;89.90;;;;;;4245811;28;20051;-75
2021/08/01 06:42:45;;;;;;;8.45;2.70;;;19.70;90.50;;;;;;4245959;28;20391;-75
2021/08/01 06:44:48;;;;;;;9.45;3.00;;;19.70;90.60;;;;;;4245859;28;20406;-76
2021/08/01 06:46:51;;;;;;;9.38;2.63;;;19.70;90.80;;;;;;4245834;28;20061;-74
2021/08/01 06:48:54;;;;;;;12.52;2.63;;;19.80;90.10;;;;;;4245762;28;20051;-75
2021/08/01 06:50:59;;;;;;;8.60;2.53;;;19.80;90.30;;;;;;4245722;28;20054;-75
2021/08/01 06:53:02;;;;;;;9.68;2.72;;;19.90;89.80;;;;;;4227781;28;20396;-75
2021/08/01 06:55:07;;;;;;;7.63;2.50;;;20.00;89.60;;;;;;4245786;28;20055;-77
2021/08/01 06:57:10;;;;;;;10.52;2.72;;;20.00;89.80;;;;;;4245661;28;20052;-76
2021/08/01 06:59:13;;;;;;;11.73;2.50;;;20.00;90.00;;;;;;4245720;28;20055;-75
2021/08/01 07:01:17;;;;;;;11.68;2.92;;;19.90;90.20;;;;;;4245461;28;20047;-75
2021/08/01 07:03:21;;;;;;;8.90;2.97;;;19.90;90.50;;;;;;4245693;27;20055;-75
2021/08/01 07:05:25;;;;;;;9.13;2.67;;;19.90;90.80;;;;;;4249244;27;20047;-75
2021/08/01 07:07:29;;;;;;;9.90;2.90;;;19.90;91.00;;;;;;4248976;27;20059;-76
2021/08/01 07:09:39;;;;;;;9.95;2.72;;;19.90;90.70;;;;;;4248916;27;20047;-76
2021/08/01 07:11:42;;;;;;;12.45;2.60;;;20.00;90.30;;;;;;4248702;27;20051;-75
2021/08/01 07:13:45;;;;;;;9.68;2.78;;;19.90;90.50;;;;;;4248744;27;20054;-74
2021/08/01 07:15:49;;;;;;;9.27;2.38;;;19.90;90.50;;;;;;4248770;27;20058;-75
2021/08/01 07:17:54;;;;;;;6.85;2.40;;;20.00;90.50;;;;;;4248867;27;20055;-76
2021/08/01 07:19:57;;;;;;;9.68;2.33;;;20.00;90.60;;;;;;4249130;27;20079;-75
2021/08/01 07:22:01;;;;;;;9.57;2.60;;;20.10;90.40;;;;;;4248727;27;20252;-74
2021/08/01 07:24:06;;;;;;;11.45;3.10;;;20.10;90.10;;;;;;4248658;27;20059;-75
2021/08/01 07:26:08;;;;;;;;;;;20.00;90.30;;;;;;4249389;27;20057;-75
2021/08/01 07:28:11;;;;;;;8.32;2.13;;;20.10;90.10;;;;;;4248759;27;20374;-75
2021/08/01 07:30:14;;;;;;;9.68;2.20;;;20.10;90.20;;;;;;4248719;27;20398;-75
2021/08/01 07:32:17;;;;;;;8.60;2.30;;;20.20;90.10;;;;;;4248566;27;20055;-75
2021/08/01 07:34:20;;;;;;;12.52;2.25;;;20.30;90.00;;;;;;4248565;27;20461;-75
2021/08/01 07:36:23;;;;;;;10.13;2.72;;;20.20;90.10;;;;;;4230356;28;20074;-75
2021/08/01 07:38:27;;;;;;;7.60;2.30;;;20.40;90.00;;;;;;4248629;27;20058;-75
2021/08/01 07:40:31;;;;;;;9.57;2.55;;;20.40;88.30;;;;;;4248393;27;20062;-75
2021/08/01 07:42:34;;;;;;;8.77;2.70;;;20.50;89.30;;;;;;4248528;27;20065;-75
2021/08/01 07:46:51;;;;;;;7.70;2.58;;;20.80;88.60;;;;;;4248460;27;20051;-75
2021/08/01 07:48:54;;;;;;;10.43;2.40;;;21.00;88.20;;;;;;4248354;27;20054;-75
2021/08/01 07:51:01;;;;;;;10.48;2.20;;;21.00;86.90;;;;;;4248724;27;20043;-75
2021/08/01 07:53:04;;;;;;;8.52;2.25;;;21.10;87.90;;;;;;4248981;27;20058;-75
2021/08/01 07:55:09;;;;;;;11.60;2.63;;;21.20;86.10;;;;;;4248409;27;20051;-74
2021/08/01 07:57:23;;;;;;;9.95;2.42;;;21.20;85.90;;;;;;4248155;27;20061;-75
2021/08/01 07:59:26;;;;;;;9.10;1.60;;;21.30;86.10;;;;;;4248348;27;20065;-75
2021/08/01 08:01:29;;;;;;;5.68;1.42;;;21.40;84.50;;;;;;4248117;27;20051;-74
2021/08/01 08:03:33;;;;;;;9.05;1.73;;;21.50;84.40;;;;;;4248315;27;20058;-74
2021/08/01 08:05:37;;;;;;;6.28;1.63;;;21.40;83.30;;;;;;4248211;27;20508;-74
2021/08/01 08:07:40;;;;;;;5.18;1.67;;;21.60;82.50;;;;;;4248210;27;20055;-75
2021/08/01 08:09:43;;;;;;;6.75;1.58;;;21.70;82.50;;;;;;4248272;27;20082;-75
2021/08/01 08:11:46;;;;;;;2.92;1.25;;;21.80;81.00;;;;;;4248105;27;20047;-74
2021/08/01 08:13:51;;;;;;;5.22;1.45;;;21.80;82.30;;;;;;4247871;27;20043;-74
2021/08/01 08:15:56;;;;;;;6.80;2.00;;;21.80;79.70;;;;;;4247429;27;20063;-75
2021/08/01 08:17:59;;;;;;;6.05;1.88;;;21.90;81.30;;;;;;4248010;27;20057;-75
2021/08/01 08:20:03;;;;;;;4.72;1.52;;;22.00;79.90;;;;;;4247783;27;20051;-75
2021/08/01 08:22:07;;;;;;;5.85;1.50;;;22.10;80.30;;;;;;4247595;27;20051;-75
2021/08/01 08:24:10;;;;;;;5.28;1.73;;;22.00;79.30;;;;;;4247646;27;20055;-74
2021/08/01 08:26:13;;;;;;;6.18;1.70;;;22.10;78.20;;;;;;4247665;27;20539;-75
2021/08/01 08:28:16;;;;;;;5.70;1.50;;;22.10;78.10;;;;;;4247760;27;20244;-74
2021/08/01 08:30:20;;;;;;;4.75;1.60;;;22.20;78.10;;;;;;4247420;27;20051;-75
2021/08/01 08:32:23;;;;;;;4.25;1.58;;;22.30;77.90;;;;;;4248043;27;20055;-74
2021/08/01 08:34:26;;;;;;;7.38;1.60;;;22.50;78.20;;;;;;4248026;27;20066;-75
2021/08/01 08:36:29;;;;;;;7.10;1.75;;;22.60;77.30;;;;;;4247787;27;20051;-75
2021/08/01 08:38:32;;;;;;;7.65;1.75;;;22.80;77.90;;;;;;4247753;27;20059;-76
2021/08/01 08:40:36;;;;;;;6.43;1.55;;;22.70;76.10;;;;;;4247762;27;20057;-75
2021/08/01 08:42:39;;;;;;;5.47;1.33;;;22.70;77.60;;;;;;4247501;27;20055;-75
2021/08/01 08:44:43;;;;;;;6.82;1.52;;;22.60;76.00;;;;;;4247657;27;20058;-75
2021/08/01 08:46:48;;;;;;;6.60;1.55;;;22.70;76.90;;;;;;4247479;27;20055;-75
2021/08/01 08:48:55;;;;;;;5.80;1.70;;;22.80;77.70;;;;;;4229169;28;20056;-75
2021/08/01 08:50:58;;;;;;;6.78;1.70;;;22.90;77.50;;;;;;4247180;27;20430;-75
2021/08/01 08:53:04;;;;;;;3.72;1.25;;;22.90;76.30;;;;;;4247597;27;20048;-76
2021/08/01 08:55:08;;;;;;;9.95;2.40;;;22.70;74.60;;;;;;4247513;27;20061;-74
2021/08/01 08:57:19;;;;;;;9.73;2.03;;;22.60;76.00;;;;;;4247262;27;20059;-75
2021/08/01 08:59:24;;;;;;;5.32;1.42;;;22.70;76.80;;;;;;4246891;27;20055;-75
2021/08/01 09:01:27;;;;;;;3.63;1.58;;;22.80;75.50;;;;;;4247628;27;20062;-74
2021/08/01 09:03:32;;;;;;;3.38;1.45;;;22.50;74.10;;;;;;4228814;28;20488;-75
2021/08/01 09:05:35;;;;;;;2.30;1.23;;;22.60;74.20;;;;;;4247434;27;20043;-75
2021/08/01 09:07:40;;;;;;;7.47;1.70;;;22.60;74.70;;;;;;4247225;27;20055;-75
2021/08/01 09:09:43;;;;;;;2.63;1.38;;;22.70;75.00;;;;;;4247015;27;20561;-75
2021/08/01 09:11:46;;;;;;;5.40;1.73;;;22.90;74.10;;;;;;4247260;27;20051;-74
2021/08/01 09:13:51;;;;;;;4.63;1.50;;;23.10;73.70;;;;;;4246778;27;20051;-76
2021/08/01 09:15:55;;;;;;;5.35;1.45;;;23.20;73.40;;;;;;4228945;28;20070;-75
2021/08/01 09:17:59;;;;;;;3.38;1.30;;;23.30;72.70;;;;;;4247222;27;20049;-75
2021/08/01 09:20:15;;;;;;;3.83;1.42;;;23.50;72.40;;;;;;4246804;27;20062;-75
2021/08/01 09:22:19;;;;;;;4.13;1.38;;;23.60;73.10;;;;;;4247400;27;20051;-75
2021/08/01 09:24:32;;;;;;;3.45;1.60;;;23.50;73.60;;;;;;4247311;27;20058;-75
2021/08/01 09:26:42;;;;;;;5.15;1.33;;;23.70;72.90;;;;;;4246790;27;20142;-75
2021/08/01 09:29:01;;;;;;;9.80;1.88;;;23.70;74.20;;;;;;4247068;27;20054;-77
2021/08/01 09:31:06;;;;;;;4.80;1.25;;;23.60;72.90;;;;;;4246838;27;20055;-74
2021/08/01 09:33:08;;;;;;;;;;;23.60;72.90;;;;;;4229699;27;20139;-74
2021/08/01 09:35:17;;;;;;;6.50;1.30;;;23.50;72.80;;;;;;4247044;27;20295;-75
2021/08/01 09:37:30;;;;;;;4.88;1.52;;;23.50;72.50;;;;;;4246711;27;20051;-76
2021/08/01 09:39:39;;;;;;;7.15;1.20;;;23.40;71.70;;;;;;4246862;27;20207;-74
2021/08/01 09:41:42;;;;;;;5.80;1.45;;;23.30;72.00;;;;;;4246652;27;20066;-75
2021/08/01 09:43:47;;;;;;;4.72;1.35;;;23.10;71.20;;;;;;4246564;27;20055;-74
2021/08/01 09:45:58;;;;;;;6.13;1.67;;;22.90;72.40;;;;;;4246327;27;20055;-74
2021/08/01 09:48:16;;;;;;;4.95;1.20;;;23.00;72.40;;;;;;4246734;27;20388;-74
2021/08/01 09:50:20;;;;;;;4.00;1.20;;;23.00;72.00;;;;;;4246538;27;20058;-75
2021/08/01 09:52:24;;;;;;;4.72;1.50;;;23.20;72.50;;;;;;4227996;28;20052;-75
2021/08/01 09:54:44;;;;;;;5.15;1.33;;;23.30;71.40;;;;;;4246311;27;20078;-74
2021/08/01 09:56:55;;;;;;;5.45;1.50;;;23.20;72.00;;;;;;4246355;27;20051;-74
2021/08/01 09:58:59;;;;;;;3.75;1.00;;;23.20;71.10;;;;;;4246185;27;20043;-75
2021/08/01 10:01:03;;;;;;;4.32;1.10;;;23.40;70.30;;;;;;4246147;27;20435;-75
2021/08/01 10:03:06;;;;;;;5.07;0.98;;;23.50;69.70;;;;;;4246038;27;20047;-76
2021/08/01 10:05:17;;;;;;;3.10;1.00;;;23.50;70.70;;;;;;4246165;27;20134;-77
2021/08/01 10:07:21;;;;;;;5.15;1.30;;;23.50;69.40;;;;;;4246052;27;20139;-77
2021/08/01 10:09:26;;;;;;;4.80;1.00;;;23.40;69.00;;;;;;4246162;27;20054;-76
2021/08/01 10:11:29;;;;;;;3.05;0.98;;;23.40;68.60;;;;;;4245795;27;20068;-76
2021/08/01 10:13:32;;;;;;;3.67;0.93;;;23.50;68.90;;;;;;4245607;27;20043;-76
2021/08/01 10:15:35;;;;;;;2.55;1.25;;;23.60;67.80;;;;;;4227752;28;20051;-76
2021/08/01 10:17:38;;;;;;;2.55;1.05;;;23.70;69.10;;;;;;4245855;27;20513;-79
2021/08/01 10:19:42;;;;;;;4.05;1.02;;;23.80;68.40;;;;;;4245943;27;20411;-75
2021/08/01 10:21:47;;;;;;;3.33;0.90;;;23.90;68.20;;;;;;4245705;27;20055;-76
2021/08/01 10:23:57;;;;;;;3.90;1.48;;;23.90;67.40;;;;;;4245981;27;20465;-76
2021/08/01 10:26:01;;;;;;;3.33;1.00;;;23.80;67.10;;;;;;4245932;27;20051;-77
2021/08/01 10:28:06;;;;;;;4.57;1.00;;;23.80;67.90;;;;;;4246141;27;20055;-77
2021/08/01 10:30:12;;;;;;;3.60;1.00;;;24.00;67.10;;;;;;4245683;27;20550;-77
2021/08/01 10:32:18;;;;;;;4.78;1.60;;;23.90;65.70;;;;;;4246050;27;20047;-75
2021/08/01 10:34:35;;;;;;;7.45;4.05;;;23.80;66.20;;;;;;4227771;28;20061;-74
2021/08/01 10:36:43;;;;;;;5.57;2.45;;;23.50;65.80;;;;;;4245792;28;20047;-75
2021/08/01 10:38:48;;;;;;;5.25;1.38;;;23.60;67.10;;;;;;4245133;27;20057;-77
2021/08/01 10:40:57;;;;;;;7.25;1.15;;;23.70;66.80;;;;;;4245628;28;20055;-74
2021/08/01 10:43:03;;;;;;;6.47;1.30;;;23.80;66.90;;;;;;4245699;28;20051;-75
2021/08/01 10:45:07;;;;;;;5.88;1.88;;;23.80;65.80;;;;;;4245623;28;20055;-75
2021/08/01 10:47:11;;;;;;;2.40;0.80;;;24.00;66.60;;;;;;4245651;28;20062;-75
2021/08/01 10:49:15;;;;;;;3.47;1.10;;;24.20;66.50;;;;;;4245813;28;20517;-74
2021/08/01 10:51:18;;;;;;;10.40;0.95;;;24.10;66.80;;;;;;4245692;28;20394;-76